sensor_id;sensor_type;location;lat;lon;timestamp;P1;durP1;ratioP1;P2;durP2;ratioP2
37097;SDS011;63608;49.572;12.348;2023-02-01T00:01:16;6.80;;;6.20;;
37097;SDS011;63608;49.572;12.348;2023-02-01T00:03:20;7.73;;;6.70;;
37097;SDS011;63608;49.572;12.348;2023-02-01T00:05:22;8.77;;;6.33;;
37097;SDS011;63608;49.572;12.348;2023-02-01T00:07:24;7.47;;;6.77;;
37097;SDS011;63608;49.572;12.348;2023-02-01T00:09:27;6.80;;;6.20;;
37097;SDS011;63608;49.572;12.348;2023-02-01T00:11:29;7.00;;;6.30;;
37097;SDS011;63608;49.572;12.348;2023-02-01T00:13:33;7.80;;;6.23;;
37097;SDS011;63608;49.572;12.348;2023-02-01T00:15:38;7.00;;;6.40;;
37097;SDS011;63608;49.572;12.348;2023-02-01T00:17:40;7.30;;;6.70;;
37097;SDS011;63608;49.572;12.348;2023-02-01T00:19:46;8.23;;;7.40;;
37097;SDS011;63608;49.572;12.348;2023-02-01T00:21:48;9.13;;;8.23;;
37097;SDS011;63608;49.572;12.348;2023-02-01T00:23:52;8.87;;;7.97;;
37097;SDS011;63608;49.572;12.348;2023-02-01T00:25:55;8.27;;;7.47;;
37097;SDS011;63608;49.572;12.348;2023-02-01T00:28:06;10.13;;;8.63;;
37097;SDS011;63608;49.572;12.348;2023-02-01T00:30:08;8.13;;;7.33;;
37097;SDS011;63608;49.572;12.348;2023-02-01T00:32:11;8.07;;;7.33;;
37097;SDS011;63608;49.572;12.348;2023-02-01T00:34:15;7.70;;;6.97;;
37097;SDS011;63608;49.572;12.348;2023-02-01T00:36:21;8.00;;;7.20;;
37097;SDS011;63608;49.572;12.348;2023-02-01T00:38:25;11.73;;;8.43;;
37097;SDS011;63608;49.572;12.348;2023-02-01T00:40:29;9.07;;;7.60;;
37097;SDS011;63608;49.572;12.348;2023-02-01T00:42:31;8.03;;;7.33;;
37097;SDS011;63608;49.572;12.348;2023-02-01T00:44:33;7.97;;;7.27;;
37097;SDS011;63608;49.572;12.348;2023-02-01T00:46:37;10.30;;;8.30;;
37097;SDS011;63608;49.572;12.348;2023-02-01T00:48:40;9.10;;;8.17;;
37097;SDS011;63608;49.572;12.348;2023-02-01T00:50:43;9.27;;;8.33;;
37097;SDS011;63608;49.572;12.348;2023-02-01T00:52:49;9.37;;;8.20;;
37097;SDS011;63608;49.572;12.348;2023-02-01T00:54:51;10.83;;;9.27;;
37097;SDS011;63608;49.572;12.348;2023-02-01T00:56:53;10.47;;;9.27;;
37097;SDS011;63608;49.572;12.348;2023-02-01T00:58:58;8.90;;;8.00;;
37097;SDS011;63608;49.572;12.348;2023-02-01T01:01:03;9.03;;;8.17;;
37097;SDS011;63608;49.572;12.348;2023-02-01T01:03:07;9.73;;;8.73;;
37097;SDS011;63608;49.572;12.348;2023-02-01T01:05:17;9.87;;;8.87;;
37097;SDS011;63608;49.572;12.348;2023-02-01T01:07:20;9.20;;;8.30;;
37097;SDS011;63608;49.572;12.348;2023-02-01T01:09:24;9.90;;;8.50;;
37097;SDS011;63608;49.572;12.348;2023-02-01T01:11:29;11.07;;;9.10;;
37097;SDS011;63608;49.572;12.348;2023-02-01T01:13:31;9.17;;;8.27;;
37097;SDS011;63608;49.572;12.348;2023-02-01T01:15:35;10.30;;;9.27;;
37097;SDS011;63608;49.572;12.348;2023-02-01T01:17:37;9.10;;;7.87;;
37097;SDS011;63608;49.572;12.348;2023-02-01T01:19:40;9.43;;;8.43;;
37097;SDS011;63608;49.572;12.348;2023-02-01T01:21:45;9.93;;;8.90;;
37097;SDS011;63608;49.572;12.348;2023-02-01T01:23:48;14.13;;;9.87;;
37097;SDS011;63608;49.572;12.348;2023-02-01T01:25:53;9.60;;;8.70;;
37097;SDS011;63608;49.572;12.348;2023-02-01T01:27:56;8.80;;;7.90;;
37097;SDS011;63608;49.572;12.348;2023-02-01T01:29:58;9.13;;;7.73;;
37097;SDS011;63608;49.572;12.348;2023-02-01T01:32:01;9.53;;;7.57;;
37097;SDS011;63608;49.572;12.348;2023-02-01T01:34:03;7.90;;;7.20;;
37097;SDS011;63608;49.572;12.348;2023-02-01T01:36:08;9.00;;;8.07;;
37097;SDS011;63608;49.572;12.348;2023-02-01T01:38:11;8.53;;;7.53;;
37097;SDS011;63608;49.572;12.348;2023-02-01T01:40:14;11.87;;;7.97;;
37097;SDS011;63608;49.572;12.348;2023-02-01T01:42:18;7.93;;;7.10;;
37097;SDS011;63608;49.572;12.348;2023-02-01T01:47:00;7.00;;;6.40;;
37097;SDS011;63608;49.572;12.348;2023-02-01T01:49:04;8.27;;;7.07;;
37097;SDS011;63608;49.572;12.348;2023-02-01T01:51:09;6.67;;;6.00;;
37097;SDS011;63608;49.572;12.348;2023-02-01T01:53:12;5.27;;;4.90;;
37097;SDS011;63608;49.572;12.348;2023-02-01T01:55:18;6.53;;;6.03;;
37097;SDS011;63608;49.572;12.348;2023-02-01T01:57:23;6.10;;;5.63;;
37097;SDS011;63608;49.572;12.348;2023-02-01T01:59:42;5.67;;;5.23;;
37097;SDS011;63608;49.572;12.348;2023-02-01T02:01:50;6.73;;;5.90;;
37097;SDS011;63608;49.572;12.348;2023-02-01T02:03:53;5.90;;;5.50;;
37097;SDS011;63608;49.572;12.348;2023-02-01T02:05:57;6.63;;;6.10;;
37097;SDS011;63608;49.572;12.348;2023-02-01T02:08:01;7.17;;;6.57;;
37097;SDS011;63608;49.572;12.348;2023-02-01T02:10:04;7.90;;;7.20;;
37097;SDS011;63608;49.572;12.348;2023-02-01T02:12:07;8.00;;;7.20;;
37097;SDS011;63608;49.572;12.348;2023-02-01T02:14:17;9.20;;;8.20;;
37097;SDS011;63608;49.572;12.348;2023-02-01T02:16:26;10.57;;;7.80;;
37097;SDS011;63608;49.572;12.348;2023-02-01T02:18:41;8.70;;;7.80;;
37097;SDS011;63608;49.572;12.348;2023-02-01T02:20:52;9.00;;;8.10;;
37097;SDS011;63608;49.572;12.348;2023-02-01T02:23:14;8.47;;;7.67;;
37097;SDS011;63608;49.572;12.348;2023-02-01T02:25:57;8.53;;;7.67;;
37097;SDS011;63608;49.572;12.348;2023-02-01T02:28:39;7.80;;;7.10;;
37097;SDS011;63608;49.572;12.348;2023-02-01T02:31:04;8.07;;;7.23;;
37097;SDS011;63608;49.572;12.348;2023-02-01T02:33:34;10.13;;;8.60;;
37097;SDS011;63608;49.572;12.348;2023-02-01T02:35:49;11.07;;;9.03;;
37097;SDS011;63608;49.572;12.348;2023-02-01T02:37:55;10.87;;;9.27;;
37097;SDS011;63608;49.572;12.348;2023-02-01T02:40:05;10.33;;;9.27;;
37097;SDS011;63608;49.572;12.348;2023-02-01T02:42:11;11.03;;;9.33;;
37097;SDS011;63608;49.572;12.348;2023-02-01T02:44:33;10.03;;;8.90;;
37097;SDS011;63608;49.572;12.348;2023-02-01T02:46:54;10.77;;;8.60;;
37097;SDS011;63608;49.572;12.348;2023-02-01T02:49:20;9.90;;;8.90;;
37097;SDS011;63608;49.572;12.348;2023-02-01T02:51:27;9.20;;;8.20;;
37097;SDS011;63608;49.572;12.348;2023-02-01T02:53:51;11.70;;;9.37;;
37097;SDS011;63608;49.572;12.348;2023-02-01T02:56:12;11.27;;;9.80;;
37097;SDS011;63608;49.572;12.348;2023-02-01T02:58:33;9.90;;;8.90;;
37097;SDS011;63608;49.572;12.348;2023-02-01T03:00:52;10.50;;;9.30;;
37097;SDS011;63608;49.572;12.348;2023-02-01T03:03:11;9.23;;;8.33;;
37097;SDS011;63608;49.572;12.348;2023-02-01T03:05:36;8.83;;;7.40;;
37097;SDS011;63608;49.572;12.348;2023-02-01T03:07:54;8.37;;;7.43;;
37097;SDS011;63608;49.572;12.348;2023-02-01T03:09:59;7.63;;;6.83;;
37097;SDS011;63608;49.572;12.348;2023-02-01T03:12:05;8.60;;;7.90;;
37097;SDS011;63608;49.572;12.348;2023-02-01T03:14:41;8.50;;;7.67;;
37097;SDS011;63608;49.572;12.348;2023-02-01T03:18:57;8.00;;;7.17;;
37097;SDS011;63608;49.572;12.348;2023-02-01T03:21:06;8.37;;;7.40;;
37097;SDS011;63608;49.572;12.348;2023-02-01T03:23:10;9.60;;;8.40;;
37097;SDS011;63608;49.572;12.348;2023-02-01T03:25:15;9.13;;;8.30;;
37097;SDS011;63608;49.572;12.348;2023-02-01T03:27:24;9.80;;;8.20;;
37097;SDS011;63608;49.572;12.348;2023-02-01T03:29:30;9.70;;;8.07;;
37097;SDS011;63608;49.572;12.348;2023-02-01T03:31:38;11.13;;;8.30;;
37097;SDS011;63608;49.572;12.348;2023-02-01T03:33:42;10.17;;;8.63;;
37097;SDS011;63608;49.572;12.348;2023-02-01T03:35:47;9.20;;;8.20;;
37097;SDS011;63608;49.572;12.348;2023-02-01T03:37:56;9.23;;;8.33;;
37097;SDS011;63608;49.572;12.348;2023-02-01T03:40:05;12.60;;;8.87;;
37097;SDS011;63608;49.572;12.348;2023-02-01T03:42:09;9.90;;;8.30;;
37097;SDS011;63608;49.572;12.348;2023-02-01T03:44:15;7.60;;;6.80;;
37097;SDS011;63608;49.572;12.348;2023-02-01T03:46:22;9.93;;;8.50;;
37097;SDS011;63608;49.572;12.348;2023-02-01T03:48:34;8.47;;;7.77;;
37097;SDS011;63608;49.572;12.348;2023-02-01T03:50:40;9.33;;;7.70;;
37097;SDS011;63608;49.572;12.348;2023-02-01T03:52:50;9.17;;;8.23;;
37097;SDS011;63608;49.572;12.348;2023-02-01T03:54:59;9.80;;;8.83;;
37097;SDS011;63608;49.572;12.348;2023-02-01T03:57:05;10.87;;;8.13;;
37097;SDS011;63608;49.572;12.348;2023-02-01T03:59:09;11.93;;;9.30;;
37097;SDS011;63608;49.572;12.348;2023-02-01T04:01:15;9.77;;;8.77;;
37097;SDS011;63608;49.572;12.348;2023-02-01T04:03:17;11.97;;;9.03;;
37097;SDS011;63608;49.572;12.348;2023-02-01T04:05:21;10.23;;;9.00;;
37097;SDS011;63608;49.572;12.348;2023-02-01T04:07:24;12.50;;;8.37;;
37097;SDS011;63608;49.572;12.348;2023-02-01T04:09:29;10.13;;;9.13;;
37097;SDS011;63608;49.572;12.348;2023-02-01T04:11:36;10.03;;;9.03;;
37097;SDS011;63608;49.572;12.348;2023-02-01T04:13:38;12.17;;;9.63;;
37097;SDS011;63608;49.572;12.348;2023-02-01T04:15:41;10.63;;;8.80;;
37097;SDS011;63608;49.572;12.348;2023-02-01T04:17:49;9.10;;;8.20;;
37097;SDS011;63608;49.572;12.348;2023-02-01T04:19:57;11.70;;;8.43;;
37097;SDS011;63608;49.572;12.348;2023-02-01T04:22:01;14.23;;;8.80;;
37097;SDS011;63608;49.572;12.348;2023-02-01T04:24:03;10.90;;;8.80;;
37097;SDS011;63608;49.572;12.348;2023-02-01T04:26:06;10.90;;;9.00;;
37097;SDS011;63608;49.572;12.348;2023-02-01T04:28:10;12.10;;;9.30;;
37097;SDS011;63608;49.572;12.348;2023-02-01T04:30:13;10.73;;;8.43;;
37097;SDS011;63608;49.572;12.348;2023-02-01T04:32:34;8.83;;;7.93;;
37097;SDS011;63608;49.572;12.348;2023-02-01T04:34:36;11.03;;;8.77;;
37097;SDS011;63608;49.572;12.348;2023-02-01T04:36:39;9.67;;;8.50;;
37097;SDS011;63608;49.572;12.348;2023-02-01T04:38:44;11.93;;;9.40;;
37097;SDS011;63608;49.572;12.348;2023-02-01T04:40:47;10.90;;;8.90;;
37097;SDS011;63608;49.572;12.348;2023-02-01T04:42:49;8.97;;;8.07;;
37097;SDS011;63608;49.572;12.348;2023-02-01T04:44:56;9.70;;;8.50;;
37097;SDS011;63608;49.572;12.348;2023-02-01T04:46:59;14.97;;;9.77;;
37097;SDS011;63608;49.572;12.348;2023-02-01T04:49:02;10.10;;;8.67;;
37097;SDS011;63608;49.572;12.348;2023-02-01T04:51:05;9.53;;;8.50;;
37097;SDS011;63608;49.572;12.348;2023-02-01T04:53:07;11.40;;;9.40;;
37097;SDS011;63608;49.572;12.348;2023-02-01T04:55:11;11.23;;;8.80;;
37097;SDS011;63608;49.572;12.348;2023-02-01T04:57:14;11.10;;;9.60;;
37097;SDS011;63608;49.572;12.348;2023-02-01T04:59:21;11.20;;;9.40;;
37097;SDS011;63608;49.572;12.348;2023-02-01T05:01:25;11.20;;;9.23;;
37097;SDS011;63608;49.572;12.348;2023-02-01T05:03:28;13.30;;;9.50;;
37097;SDS011;63608;49.572;12.348;2023-02-01T05:05:32;12.80;;;9.73;;
37097;SDS011;63608;49.572;12.348;2023-02-01T05:07:35;11.00;;;8.60;;
37097;SDS011;63608;49.572;12.348;2023-02-01T05:09:37;12.83;;;10.70;;
37097;SDS011;63608;49.572;12.348;2023-02-01T05:11:39;11.73;;;8.90;;
37097;SDS011;63608;49.572;12.348;2023-02-01T05:14:00;12.47;;;10.00;;
37097;SDS011;63608;49.572;12.348;2023-02-01T05:16:03;13.73;;;9.73;;
37097;SDS011;63608;49.572;12.348;2023-02-01T05:18:08;12.77;;;8.57;;
37097;SDS011;63608;49.572;12.348;2023-02-01T05:20:10;11.20;;;9.37;;
37097;SDS011;63608;49.572;12.348;2023-02-01T05:22:13;12.47;;;9.73;;
37097;SDS011;63608;49.572;12.348;2023-02-01T05:24:15;11.70;;;8.87;;
37097;SDS011;63608;49.572;12.348;2023-02-01T05:26:20;12.50;;;9.37;;
37097;SDS011;63608;49.572;12.348;2023-02-01T05:28:23;13.17;;;9.03;;
37097;SDS011;63608;49.572;12.348;2023-02-01T05:30:26;10.17;;;9.20;;
37097;SDS011;63608;49.572;12.348;2023-02-01T05:32:28;10.23;;;9.23;;
37097;SDS011;63608;49.572;12.348;2023-02-01T05:34:34;10.23;;;9.23;;
37097;SDS011;63608;49.572;12.348;2023-02-01T05:36:37;12.27;;;9.23;;
37097;SDS011;63608;49.572;12.348;2023-02-01T05:38:39;11.03;;;9.37;;
37097;SDS011;63608;49.572;12.348;2023-02-01T05:40:42;9.77;;;8.80;;
37097;SDS011;63608;49.572;12.348;2023-02-01T05:42:49;10.37;;;8.30;;
37097;SDS011;63608;49.572;12.348;2023-02-01T05:44:51;10.50;;;9.27;;
37097;SDS011;63608;49.572;12.348;2023-02-01T05:46:55;13.37;;;9.83;;
37097;SDS011;63608;49.572;12.348;2023-02-01T05:48:57;9.93;;;8.93;;
37097;SDS011;63608;49.572;12.348;2023-02-01T05:51:01;10.50;;;9.30;;
37097;SDS011;63608;49.572;12.348;2023-02-01T05:53:03;11.37;;;10.17;;
37097;SDS011;63608;49.572;12.348;2023-02-01T05:55:05;9.97;;;8.90;;
37097;SDS011;63608;49.572;12.348;2023-02-01T05:57:14;11.90;;;9.40;;
37097;SDS011;63608;49.572;12.348;2023-02-01T05:59:17;12.23;;;10.60;;
37097;SDS011;63608;49.572;12.348;2023-02-01T06:01:22;12.83;;;10.80;;
37097;SDS011;63608;49.572;12.348;2023-02-01T06:03:28;10.53;;;9.43;;
37097;SDS011;63608;49.572;12.348;2023-02-01T06:05:34;15.10;;;11.30;;
37097;SDS011;63608;49.572;12.348;2023-02-01T06:07:40;10.70;;;9.60;;
37097;SDS011;63608;49.572;12.348;2023-02-01T06:09:44;9.17;;;8.27;;
37097;SDS011;63608;49.572;12.348;2023-02-01T06:11:46;9.93;;;8.57;;
37097;SDS011;63608;49.572;12.348;2023-02-01T06:13:49;9.60;;;8.70;;
37097;SDS011;63608;49.572;12.348;2023-02-01T06:16:09;11.47;;;9.40;;
37097;SDS011;63608;49.572;12.348;2023-02-01T06:18:15;9.43;;;8.43;;
37097;SDS011;63608;49.572;12.348;2023-02-01T06:20:18;10.27;;;8.50;;
37097;SDS011;63608;49.572;12.348;2023-02-01T06:22:24;7.90;;;7.20;;
37097;SDS011;63608;49.572;12.348;2023-02-01T06:24:30;7.90;;;7.20;;
37097;SDS011;63608;49.572;12.348;2023-02-01T06:26:32;8.17;;;7.37;;
37097;SDS011;63608;49.572;12.348;2023-02-01T06:28:34;7.40;;;6.80;;
37097;SDS011;63608;49.572;12.348;2023-02-01T06:30:38;6.77;;;6.17;;
37097;SDS011;63608;49.572;12.348;2023-02-01T06:32:58;6.73;;;6.13;;
37097;SDS011;63608;49.572;12.348;2023-02-01T06:35:00;7.60;;;6.90;;
37097;SDS011;63608;49.572;12.348;2023-02-01T06:37:03;8.03;;;7.30;;
37097;SDS011;63608;49.572;12.348;2023-02-01T06:39:06;8.47;;;7.57;;
37097;SDS011;63608;49.572;12.348;2023-02-01T06:41:10;6.87;;;6.17;;
37097;SDS011;63608;49.572;12.348;2023-02-01T06:43:12;10.93;;;6.80;;
37097;SDS011;63608;49.572;12.348;2023-02-01T06:45:15;10.07;;;9.07;;
37097;SDS011;63608;49.572;12.348;2023-02-01T06:47:17;9.60;;;8.60;;
37097;SDS011;63608;49.572;12.348;2023-02-01T06:49:20;10.80;;;9.33;;
37097;SDS011;63608;49.572;12.348;2023-02-01T06:51:24;10.10;;;9.00;;
37097;SDS011;63608;49.572;12.348;2023-02-01T06:53:28;9.70;;;8.73;;
37097;SDS011;63608;49.572;12.348;2023-02-01T06:55:32;10.80;;;9.07;;
37097;SDS011;63608;49.572;12.348;2023-02-01T06:57:36;10.47;;;9.00;;
37097;SDS011;63608;49.572;12.348;2023-02-01T06:59:38;11.70;;;8.70;;
37097;SDS011;63608;49.572;12.348;2023-02-01T07:01:45;11.67;;;9.03;;
37097;SDS011;63608;49.572;12.348;2023-02-01T07:03:47;9.47;;;8.47;;
37097;SDS011;63608;49.572;12.348;2023-02-01T07:05:54;12.50;;;8.27;;
37097;SDS011;63608;49.572;12.348;2023-02-01T07:07:58;12.17;;;8.70;;
37097;SDS011;63608;49.572;12.348;2023-02-01T07:10:00;10.63;;;8.67;;
37097;SDS011;63608;49.572;12.348;2023-02-01T07:12:03;11.50;;;8.87;;
37097;SDS011;63608;49.572;12.348;2023-02-01T07:14:07;10.97;;;9.83;;
37097;SDS011;63608;49.572;12.348;2023-02-01T07:16:13;17.93;;;10.40;;
37097;SDS011;63608;49.572;12.348;2023-02-01T07:18:16;13.43;;;9.20;;
37097;SDS011;63608;49.572;12.348;2023-02-01T07:20:22;8.37;;;7.57;;
37097;SDS011;63608;49.572;12.348;2023-02-01T07:22:28;10.60;;;7.90;;
37097;SDS011;63608;49.572;12.348;2023-02-01T07:24:31;9.27;;;7.17;;
37097;SDS011;63608;49.572;12.348;2023-02-01T07:26:35;13.73;;;7.57;;
37097;SDS011;63608;49.572;12.348;2023-02-01T07:28:37;9.40;;;7.23;;
37097;SDS011;63608;49.572;12.348;2023-02-01T07:30:41;10.83;;;7.53;;
37097;SDS011;63608;49.572;12.348;2023-02-01T07:32:44;8.20;;;6.40;;
37097;SDS011;63608;49.572;12.348;2023-02-01T07:34:47;11.77;;;6.83;;
37097;SDS011;63608;49.572;12.348;2023-02-01T07:36:49;10.07;;;7.10;;
37097;SDS011;63608;49.572;12.348;2023-02-01T07:38:52;11.07;;;6.93;;
37097;SDS011;63608;49.572;12.348;2023-02-01T07:40:56;11.17;;;7.20;;
37097;SDS011;63608;49.572;12.348;2023-02-01T07:43:13;14.67;;;7.20;;
37097;SDS011;63608;49.572;12.348;2023-02-01T07:45:19;12.40;;;6.93;;
37097;SDS011;63608;49.572;12.348;2023-02-01T07:47:23;10.77;;;7.23;;
37097;SDS011;63608;49.572;12.348;2023-02-01T07:49:25;8.80;;;6.70;;
37097;SDS011;63608;49.572;12.348;2023-02-01T07:51:28;8.27;;;6.13;;
37097;SDS011;63608;49.572;12.348;2023-02-01T07:53:32;15.47;;;7.40;;
37097;SDS011;63608;49.572;12.348;2023-02-01T07:55:37;8.70;;;6.47;;
37097;SDS011;63608;49.572;12.348;2023-02-01T07:57:40;10.67;;;6.30;;
37097;SDS011;63608;49.572;12.348;2023-02-01T07:59:45;11.00;;;6.33;;
37097;SDS011;63608;49.572;12.348;2023-02-01T08:02:02;9.90;;;5.90;;
37097;SDS011;63608;49.572;12.348;2023-02-01T08:04:07;11.90;;;6.03;;
37097;SDS011;63608;49.572;12.348;2023-02-01T08:06:13;12.50;;;5.90;;
37097;SDS011;63608;49.572;12.348;2023-02-01T08:08:17;10.57;;;6.17;;
37097;SDS011;63608;49.572;12.348;2023-02-01T08:10:19;12.87;;;6.10;;
37097;SDS011;63608;49.572;12.348;2023-02-01T08:12:23;7.87;;;5.30;;
37097;SDS011;63608;49.572;12.348;2023-02-01T08:14:27;9.00;;;5.20;;
37097;SDS011;63608;49.572;12.348;2023-02-01T08:16:29;8.80;;;5.13;;
37097;SDS011;63608;49.572;12.348;2023-02-01T08:18:32;7.20;;;4.50;;
37097;SDS011;63608;49.572;12.348;2023-02-01T08:20:36;8.73;;;4.77;;
37097;SDS011;63608;49.572;12.348;2023-02-01T08:22:43;7.30;;;4.10;;
37097;SDS011;63608;49.572;12.348;2023-02-01T08:24:47;8.10;;;4.40;;
37097;SDS011;63608;49.572;12.348;2023-02-01T08:26:51;6.10;;;4.20;;
37097;SDS011;63608;49.572;12.348;2023-02-01T08:28:54;7.47;;;3.97;;
37097;SDS011;63608;49.572;12.348;2023-02-01T08:31:05;4.70;;;3.80;;
37097;SDS011;63608;49.572;12.348;2023-02-01T08:33:09;9.07;;;4.33;;
37097;SDS011;63608;49.572;12.348;2023-02-01T08:35:11;4.73;;;4.27;;
37097;SDS011;63608;49.572;12.348;2023-02-01T08:37:16;5.97;;;3.97;;
37097;SDS011;63608;49.572;12.348;2023-02-01T08:39:18;6.40;;;3.90;;
37097;SDS011;63608;49.572;12.348;2023-02-01T08:41:22;5.97;;;3.47;;
37097;SDS011;63608;49.572;12.348;2023-02-01T08:43:25;4.13;;;3.50;;
37097;SDS011;63608;49.572;12.348;2023-02-01T08:45:28;5.47;;;3.60;;
37097;SDS011;63608;49.572;12.348;2023-02-01T08:47:32;6.57;;;3.50;;
37097;SDS011;63608;49.572;12.348;2023-02-01T08:49:35;4.87;;;3.27;;
37097;SDS011;63608;49.572;12.348;2023-02-01T08:51:37;3.93;;;3.20;;
37097;SDS011;63608;49.572;12.348;2023-02-01T08:53:42;7.40;;;3.20;;
37097;SDS011;63608;49.572;12.348;2023-02-01T08:55:45;6.07;;;3.70;;
37097;SDS011;63608;49.572;12.348;2023-02-01T08:57:47;5.33;;;3.17;;
37097;SDS011;63608;49.572;12.348;2023-02-01T08:59:50;4.60;;;3.00;;
37097;SDS011;63608;49.572;12.348;2023-02-01T09:01:52;3.37;;;3.07;;
37097;SDS011;63608;49.572;12.348;2023-02-01T09:03:55;3.63;;;3.30;;
37097;SDS011;63608;49.572;12.348;2023-02-01T09:05:59;4.83;;;3.93;;
37097;SDS011;63608;49.572;12.348;2023-02-01T09:08:02;8.40;;;3.50;;
37097;SDS011;63608;49.572;12.348;2023-02-01T09:10:08;9.10;;;3.73;;
37097;SDS011;63608;49.572;12.348;2023-02-01T09:12:22;8.67;;;3.73;;
37097;SDS011;63608;49.572;12.348;2023-02-01T09:14:26;6.07;;;3.67;;
37097;SDS011;63608;49.572;12.348;2023-02-01T09:16:28;3.40;;;3.10;;
37097;SDS011;63608;49.572;12.348;2023-02-01T09:18:32;5.37;;;3.30;;
37097;SDS011;63608;49.572;12.348;2023-02-01T09:20:34;5.40;;;3.50;;
37097;SDS011;63608;49.572;12.348;2023-02-01T09:22:38;4.87;;;3.83;;
37097;SDS011;63608;49.572;12.348;2023-02-01T09:24:42;6.17;;;3.27;;
37097;SDS011;63608;49.572;12.348;2023-02-01T09:26:49;3.50;;;3.20;;
37097;SDS011;63608;49.572;12.348;2023-02-01T09:28:52;6.83;;;3.07;;
37097;SDS011;63608;49.572;12.348;2023-02-01T09:30:55;5.27;;;3.20;;
37097;SDS011;63608;49.572;12.348;2023-02-01T09:33:00;6.40;;;3.40;;
37097;SDS011;63608;49.572;12.348;2023-02-01T09:35:02;4.00;;;2.77;;
37097;SDS011;63608;49.572;12.348;2023-02-01T09:37:23;5.57;;;2.60;;
37097;SDS011;63608;49.572;12.348;2023-02-01T09:39:36;6.33;;;3.23;;
37097;SDS011;63608;49.572;12.348;2023-02-01T09:41:41;5.30;;;3.33;;
37097;SDS011;63608;49.572;12.348;2023-02-01T09:43:54;4.20;;;2.97;;
37097;SDS011;63608;49.572;12.348;2023-02-01T09:46:06;5.57;;;3.00;;
37097;SDS011;63608;49.572;12.348;2023-02-01T09:48:23;5.47;;;3.10;;
37097;SDS011;63608;49.572;12.348;2023-02-01T09:50:33;10.07;;;3.53;;
37097;SDS011;63608;49.572;12.348;2023-02-01T09:52:38;5.20;;;2.83;;
37097;SDS011;63608;49.572;12.348;2023-02-01T09:54:44;7.27;;;3.03;;
37097;SDS011;63608;49.572;12.348;2023-02-01T09:57:13;3.33;;;2.83;;
37097;SDS011;63608;49.572;12.348;2023-02-01T09:59:23;9.20;;;3.03;;
37097;SDS011;63608;49.572;12.348;2023-02-01T10:01:31;3.50;;;2.87;;
37097;SDS011;63608;49.572;12.348;2023-02-01T10:03:35;6.40;;;3.03;;
37097;SDS011;63608;49.572;12.348;2023-02-01T10:05:44;5.23;;;2.60;;
37097;SDS011;63608;49.572;12.348;2023-02-01T10:08:08;5.50;;;3.20;;
37097;SDS011;63608;49.572;12.348;2023-02-01T10:10:15;5.30;;;3.10;;
37097;SDS011;63608;49.572;12.348;2023-02-01T10:12:33;5.33;;;3.10;;
37097;SDS011;63608;49.572;12.348;2023-02-01T10:14:59;6.07;;;3.10;;
37097;SDS011;63608;49.572;12.348;2023-02-01T10:17:08;5.80;;;3.70;;
37097;SDS011;63608;49.572;12.348;2023-02-01T10:19:28;5.90;;;3.10;;
37097;SDS011;63608;49.572;12.348;2023-02-01T10:21:41;3.10;;;2.90;;
37097;SDS011;63608;49.572;12.348;2023-02-01T10:24:01;3.40;;;2.73;;
37097;SDS011;63608;49.572;12.348;2023-02-01T10:26:33;2.60;;;2.40;;
37097;SDS011;63608;49.572;12.348;2023-02-01T10:28:38;4.73;;;2.90;;
37097;SDS011;63608;49.572;12.348;2023-02-01T10:30:44;3.10;;;2.63;;
37097;SDS011;63608;49.572;12.348;2023-02-01T10:32:48;4.27;;;2.60;;
37097;SDS011;63608;49.572;12.348;2023-02-01T10:34:52;4.30;;;2.80;;
37097;SDS011;63608;49.572;12.348;2023-02-01T10:36:59;5.43;;;2.83;;
37097;SDS011;63608;49.572;12.348;2023-02-01T10:39:09;4.17;;;2.27;;
37097;SDS011;63608;49.572;12.348;2023-02-01T10:41:14;5.23;;;2.40;;
37097;SDS011;63608;49.572;12.348;2023-02-01T10:43:18;5.03;;;2.60;;
37097;SDS011;63608;49.572;12.348;2023-02-01T10:45:24;2.20;;;2.00;;
37097;SDS011;63608;49.572;12.348;2023-02-01T10:47:30;3.50;;;2.20;;
37097;SDS011;63608;49.572;12.348;2023-02-01T10:49:37;2.50;;;2.10;;
37097;SDS011;63608;49.572;12.348;2023-02-01T10:51:45;3.20;;;2.30;;
37097;SDS011;63608;49.572;12.348;2023-02-01T10:53:52;4.20;;;2.37;;
37097;SDS011;63608;49.572;12.348;2023-02-01T10:55:57;4.00;;;2.30;;
37097;SDS011;63608;49.572;12.348;2023-02-01T10:58:01;5.10;;;2.30;;
37097;SDS011;63608;49.572;12.348;2023-02-01T11:00:14;5.80;;;2.30;;
37097;SDS011;63608;49.572;12.348;2023-02-01T11:02:23;2.33;;;2.10;;
37097;SDS011;63608;49.572;12.348;2023-02-01T11:04:32;6.93;;;2.33;;
37097;SDS011;63608;49.572;12.348;2023-02-01T11:06:39;4.93;;;3.23;;
37097;SDS011;63608;49.572;12.348;2023-02-01T11:08:45;5.17;;;2.50;;
37097;SDS011;63608;49.572;12.348;2023-02-01T11:10:56;4.17;;;2.43;;
37097;SDS011;63608;49.572;12.348;2023-02-01T11:13:00;7.60;;;2.87;;
37097;SDS011;63608;49.572;12.348;2023-02-01T11:15:13;5.20;;;2.57;;
37097;SDS011;63608;49.572;12.348;2023-02-01T11:17:24;3.80;;;2.37;;
37097;SDS011;63608;49.572;12.348;2023-02-01T11:19:28;3.87;;;2.60;;
37097;SDS011;63608;49.572;12.348;2023-02-01T11:21:35;5.43;;;2.30;;
37097;SDS011;63608;49.572;12.348;2023-02-01T11:23:41;3.00;;;2.27;;
37097;SDS011;63608;49.572;12.348;2023-02-01T11:25:48;4.97;;;2.23;;
37097;SDS011;63608;49.572;12.348;2023-02-01T11:27:53;3.30;;;2.20;;
37097;SDS011;63608;49.572;12.348;2023-02-01T11:29:58;4.53;;;2.50;;
37097;SDS011;63608;49.572;12.348;2023-02-01T11:32:04;2.43;;;2.13;;
37097;SDS011;63608;49.572;12.348;2023-02-01T11:34:11;2.90;;;2.37;;
37097;SDS011;63608;49.572;12.348;2023-02-01T11:36:16;3.40;;;2.50;;
37097;SDS011;63608;49.572;12.348;2023-02-01T11:38:25;3.57;;;2.50;;
37097;SDS011;63608;49.572;12.348;2023-02-01T11:40:43;5.17;;;3.17;;
37097;SDS011;63608;49.572;12.348;2023-02-01T11:42:52;5.77;;;2.30;;
37097;SDS011;63608;49.572;12.348;2023-02-01T11:45:16;3.20;;;2.60;;
37097;SDS011;63608;49.572;12.348;2023-02-01T11:47:24;4.80;;;2.60;;
37097;SDS011;63608;49.572;12.348;2023-02-01T11:49:27;5.70;;;2.60;;
37097;SDS011;63608;49.572;12.348;2023-02-01T11:51:34;3.17;;;2.53;;
37097;SDS011;63608;49.572;12.348;2023-02-01T11:53:53;2.80;;;2.30;;
37097;SDS011;63608;49.572;12.348;2023-02-01T11:56:08;5.30;;;2.53;;
37097;SDS011;63608;49.572;12.348;2023-02-01T11:58:20;2.80;;;2.50;;
37097;SDS011;63608;49.572;12.348;2023-02-01T12:00:51;3.73;;;2.60;;
37097;SDS011;63608;49.572;12.348;2023-02-01T12:03:14;4.80;;;2.40;;
37097;SDS011;63608;49.572;12.348;2023-02-01T12:05:44;9.17;;;3.10;;
37097;SDS011;63608;49.572;12.348;2023-02-01T12:07:58;3.83;;;2.37;;
37097;SDS011;63608;49.572;12.348;2023-02-01T12:10:15;5.13;;;2.70;;
37097;SDS011;63608;49.572;12.348;2023-02-01T12:12:24;6.30;;;2.40;;
37097;SDS011;63608;49.572;12.348;2023-02-01T12:17:01;3.33;;;2.40;;
37097;SDS011;63608;49.572;12.348;2023-02-01T12:19:42;2.70;;;2.40;;
37097;SDS011;63608;49.572;12.348;2023-02-01T12:22:03;4.40;;;2.70;;
37097;SDS011;63608;49.572;12.348;2023-02-01T12:26:53;3.00;;;2.37;;
37097;SDS011;63608;49.572;12.348;2023-02-01T12:29:05;5.00;;;2.70;;
37097;SDS011;63608;49.572;12.348;2023-02-01T12:31:24;7.03;;;2.67;;
37097;SDS011;63608;49.572;12.348;2023-02-01T12:33:38;4.27;;;2.63;;
37097;SDS011;63608;49.572;12.348;2023-02-01T12:35:56;4.60;;;2.97;;
37097;SDS011;63608;49.572;12.348;2023-02-01T12:38:17;4.00;;;2.63;;
37097;SDS011;63608;49.572;12.348;2023-02-01T12:40:31;5.93;;;2.43;;
37097;SDS011;63608;49.572;12.348;2023-02-01T12:42:50;4.13;;;2.97;;